sensor_id;sensor_type;location;lat;lon;timestamp;P1;durP1;ratioP1;P2;durP2;ratioP2
39846;SDS011;25517;52.422;10.782;2023-03-01T00:01:31;14.15;;;7.93;;
39846;SDS011;25517;52.422;10.782;2023-03-01T00:03:57;13.85;;;7.30;;
39846;SDS011;25517;52.422;10.782;2023-03-01T00:06:24;14.13;;;7.60;;
39846;SDS011;25517;52.422;10.782;2023-03-01T00:08:50;13.32;;;6.72;;
39846;SDS011;25517;52.422;10.782;2023-03-01T00:11:17;13.38;;;7.13;;
39846;SDS011;25517;52.422;10.782;2023-03-01T00:13:49;11.73;;;7.15;;
39846;SDS011;25517;52.422;10.782;2023-03-01T00:16:18;13.80;;;7.05;;
39846;SDS011;25517;52.422;10.782;2023-03-01T00:18:55;13.70;;;7.60;;
39846;SDS011;25517;52.422;10.782;2023-03-01T00:21:21;19.10;;;7.45;;
39846;SDS011;25517;52.422;10.782;2023-03-01T00:23:47;12.52;;;7.90;;
39846;SDS011;25517;52.422;10.782;2023-03-01T00:26:14;14.00;;;7.95;;
39846;SDS011;25517;52.422;10.782;2023-03-01T00:28:41;13.43;;;7.18;;
39846;SDS011;25517;52.422;10.782;2023-03-01T00:31:11;16.25;;;7.97;;
39846;SDS011;25517;52.422;10.782;2023-03-01T00:33:39;16.40;;;7.75;;
39846;SDS011;25517;52.422;10.782;2023-03-01T00:36:05;17.08;;;7.90;;
39846;SDS011;25517;52.422;10.782;2023-03-01T00:38:34;12.77;;;7.03;;
39846;SDS011;25517;52.422;10.782;2023-03-01T00:41:07;16.88;;;7.88;;
39846;SDS011;25517;52.422;10.782;2023-03-01T00:43:37;16.65;;;8.02;;
39846;SDS011;25517;52.422;10.782;2023-03-01T00:46:04;14.32;;;7.68;;
39846;SDS011;25517;52.422;10.782;2023-03-01T00:48:34;19.75;;;8.73;;
39846;SDS011;25517;52.422;10.782;2023-03-01T00:51:07;11.80;;;6.60;;
39846;SDS011;25517;52.422;10.782;2023-03-01T00:53:36;17.17;;;7.95;;
39846;SDS011;25517;52.422;10.782;2023-03-01T00:56:03;13.93;;;7.75;;
39846;SDS011;25517;52.422;10.782;2023-03-01T00:58:30;13.57;;;7.85;;
39846;SDS011;25517;52.422;10.782;2023-03-01T01:00:55;13.88;;;7.10;;
39846;SDS011;25517;52.422;10.782;2023-03-01T01:03:21;18.23;;;7.70;;
39846;SDS011;25517;52.422;10.782;2023-03-01T01:05:48;12.20;;;6.85;;
39846;SDS011;25517;52.422;10.782;2023-03-01T01:08:13;13.57;;;7.30;;
39846;SDS011;25517;52.422;10.782;2023-03-01T01:10:39;13.65;;;7.18;;
39846;SDS011;25517;52.422;10.782;2023-03-01T01:13:04;13.30;;;7.43;;
39846;SDS011;25517;52.422;10.782;2023-03-01T01:15:33;14.98;;;7.30;;
39846;SDS011;25517;52.422;10.782;2023-03-01T01:17:59;14.80;;;7.93;;
39846;SDS011;25517;52.422;10.782;2023-03-01T01:20:25;14.90;;;7.88;;
39846;SDS011;25517;52.422;10.782;2023-03-01T01:22:51;14.57;;;7.85;;
39846;SDS011;25517;52.422;10.782;2023-03-01T01:25:17;13.30;;;7.32;;
39846;SDS011;25517;52.422;10.782;2023-03-01T01:27:42;13.75;;;7.85;;
39846;SDS011;25517;52.422;10.782;2023-03-01T01:30:08;14.77;;;6.93;;
39846;SDS011;25517;52.422;10.782;2023-03-01T01:32:34;14.95;;;8.35;;
39846;SDS011;25517;52.422;10.782;2023-03-01T01:35:00;16.85;;;9.48;;
39846;SDS011;25517;52.422;10.782;2023-03-01T01:37:25;12.10;;;6.75;;
39846;SDS011;25517;52.422;10.782;2023-03-01T01:39:56;15.25;;;7.25;;
39846;SDS011;25517;52.422;10.782;2023-03-01T01:42:26;8.90;;;4.68;;
39846;SDS011;25517;52.422;10.782;2023-03-01T01:47:52;15.93;;;7.28;;
39846;SDS011;25517;52.422;10.782;2023-03-01T01:50:20;13.02;;;7.70;;
39846;SDS011;25517;52.422;10.782;2023-03-01T01:52:47;13.88;;;8.98;;
39846;SDS011;25517;52.422;10.782;2023-03-01T01:55:16;16.42;;;8.55;;
39846;SDS011;25517;52.422;10.782;2023-03-01T01:57:47;15.40;;;7.53;;
39846;SDS011;25517;52.422;10.782;2023-03-01T02:02:44;11.57;;;7.22;;
39846;SDS011;25517;52.422;10.782;2023-03-01T02:05:16;10.57;;;6.60;;
39846;SDS011;25517;52.422;10.782;2023-03-01T02:07:44;15.30;;;7.80;;
39846;SDS011;25517;52.422;10.782;2023-03-01T02:10:10;13.52;;;7.25;;
39846;SDS011;25517;52.422;10.782;2023-03-01T02:12:35;13.70;;;7.38;;
39846;SDS011;25517;52.422;10.782;2023-03-01T02:15:02;15.02;;;8.70;;
39846;SDS011;25517;52.422;10.782;2023-03-01T02:17:29;15.63;;;8.38;;
39846;SDS011;25517;52.422;10.782;2023-03-01T02:22:49;11.75;;;7.00;;
39846;SDS011;25517;52.422;10.782;2023-03-01T02:30:21;19.88;;;8.32;;
39846;SDS011;25517;52.422;10.782;2023-03-01T02:32:47;19.17;;;7.88;;
39846;SDS011;25517;52.422;10.782;2023-03-01T02:35:14;15.02;;;7.72;;
39846;SDS011;25517;52.422;10.782;2023-03-01T02:37:42;17.27;;;7.88;;
39846;SDS011;25517;52.422;10.782;2023-03-01T02:40:13;16.05;;;7.65;;
39846;SDS011;25517;52.422;10.782;2023-03-01T02:42:56;17.15;;;8.77;;
39846;SDS011;25517;52.422;10.782;2023-03-01T02:45:23;16.20;;;8.32;;
39846;SDS011;25517;52.422;10.782;2023-03-01T02:47:49;18.77;;;8.80;;
39846;SDS011;25517;52.422;10.782;2023-03-01T02:58:21;18.42;;;9.07;;
39846;SDS011;25517;52.422;10.782;2023-03-01T03:00:47;20.13;;;10.23;;
39846;SDS011;25517;52.422;10.782;2023-03-01T03:03:14;20.13;;;9.35;;
39846;SDS011;25517;52.422;10.782;2023-03-01T03:05:41;20.65;;;11.35;;
39846;SDS011;25517;52.422;10.782;2023-03-01T03:08:07;19.15;;;10.38;;
39846;SDS011;25517;52.422;10.782;2023-03-01T03:10:35;20.58;;;9.98;;
39846;SDS011;25517;52.422;10.782;2023-03-01T03:13:06;17.83;;;9.73;;
39846;SDS011;25517;52.422;10.782;2023-03-01T03:15:34;19.80;;;8.55;;
39846;SDS011;25517;52.422;10.782;2023-03-01T03:18:01;18.27;;;9.95;;
39846;SDS011;25517;52.422;10.782;2023-03-01T03:20:28;15.18;;;8.10;;
39846;SDS011;25517;52.422;10.782;2023-03-01T03:22:55;18.45;;;8.90;;
39846;SDS011;25517;52.422;10.782;2023-03-01T03:25:24;20.48;;;10.15;;
39846;SDS011;25517;52.422;10.782;2023-03-01T03:27:51;15.00;;;8.25;;
39846;SDS011;25517;52.422;10.782;2023-03-01T03:30:21;16.45;;;9.07;;
39846;SDS011;25517;52.422;10.782;2023-03-01T03:32:49;18.23;;;8.93;;
39846;SDS011;25517;52.422;10.782;2023-03-01T03:35:22;18.63;;;8.77;;
39846;SDS011;25517;52.422;10.782;2023-03-01T03:37:50;16.17;;;9.13;;
39846;SDS011;25517;52.422;10.782;2023-03-01T03:40:30;19.98;;;9.00;;
39846;SDS011;25517;52.422;10.782;2023-03-01T03:43:00;16.95;;;9.40;;
39846;SDS011;25517;52.422;10.782;2023-03-01T03:45:27;20.25;;;9.60;;
39846;SDS011;25517;52.422;10.782;2023-03-01T03:47:52;17.63;;;9.38;;
39846;SDS011;25517;52.422;10.782;2023-03-01T03:50:18;17.48;;;8.45;;
39846;SDS011;25517;52.422;10.782;2023-03-01T03:52:44;19.05;;;8.95;;
39846;SDS011;25517;52.422;10.782;2023-03-01T03:55:10;20.17;;;9.07;;
39846;SDS011;25517;52.422;10.782;2023-03-01T03:57:37;18.52;;;9.52;;
39846;SDS011;25517;52.422;10.782;2023-03-01T04:00:04;21.90;;;9.82;;
39846;SDS011;25517;52.422;10.782;2023-03-01T04:02:37;16.38;;;9.20;;
39846;SDS011;25517;52.422;10.782;2023-03-01T04:05:10;18.00;;;8.98;;
39846;SDS011;25517;52.422;10.782;2023-03-01T04:07:37;21.67;;;9.85;;
39846;SDS011;25517;52.422;10.782;2023-03-01T04:10:04;17.90;;;9.15;;
39846;SDS011;25517;52.422;10.782;2023-03-01T04:12:32;17.15;;;8.75;;
39846;SDS011;25517;52.422;10.782;2023-03-01T04:14:59;19.95;;;10.35;;
39846;SDS011;25517;52.422;10.782;2023-03-01T04:17:25;18.20;;;10.32;;
39846;SDS011;25517;52.422;10.782;2023-03-01T04:19:50;18.33;;;11.25;;
39846;SDS011;25517;52.422;10.782;2023-03-01T04:22:16;20.38;;;10.00;;
39846;SDS011;25517;52.422;10.782;2023-03-01T04:24:43;17.40;;;9.32;;
39846;SDS011;25517;52.422;10.782;2023-03-01T04:27:09;19.02;;;10.07;;
39846;SDS011;25517;52.422;10.782;2023-03-01T04:29:35;16.67;;;8.57;;
39846;SDS011;25517;52.422;10.782;2023-03-01T04:32:00;20.73;;;9.35;;
39846;SDS011;25517;52.422;10.782;2023-03-01T04:34:26;19.52;;;9.80;;
39846;SDS011;25517;52.422;10.782;2023-03-01T04:36:51;15.23;;;8.32;;
39846;SDS011;25517;52.422;10.782;2023-03-01T04:39:17;15.68;;;8.55;;
39846;SDS011;25517;52.422;10.782;2023-03-01T04:41:43;16.73;;;8.82;;
39846;SDS011;25517;52.422;10.782;2023-03-01T04:44:09;17.13;;;8.55;;
39846;SDS011;25517;52.422;10.782;2023-03-01T04:46:35;14.70;;;7.70;;
39846;SDS011;25517;52.422;10.782;2023-03-01T04:49:01;18.63;;;8.32;;
39846;SDS011;25517;52.422;10.782;2023-03-01T04:51:27;17.27;;;9.05;;
39846;SDS011;25517;52.422;10.782;2023-03-01T04:53:53;17.92;;;9.27;;
39846;SDS011;25517;52.422;10.782;2023-03-01T04:56:19;14.27;;;9.05;;
39846;SDS011;25517;52.422;10.782;2023-03-01T04:58:45;14.88;;;8.13;;
39846;SDS011;25517;52.422;10.782;2023-03-01T05:01:12;18.90;;;8.75;;
39846;SDS011;25517;52.422;10.782;2023-03-01T05:06:08;17.40;;;8.52;;
39846;SDS011;25517;52.422;10.782;2023-03-01T05:08:33;19.35;;;8.93;;
39846;SDS011;25517;52.422;10.782;2023-03-01T05:11:01;16.23;;;8.45;;
39846;SDS011;25517;52.422;10.782;2023-03-01T05:13:27;15.68;;;8.93;;
39846;SDS011;25517;52.422;10.782;2023-03-01T05:15:55;15.95;;;8.25;;
39846;SDS011;25517;52.422;10.782;2023-03-01T05:18:23;18.38;;;9.27;;
39846;SDS011;25517;52.422;10.782;2023-03-01T05:20:52;14.27;;;8.07;;
39846;SDS011;25517;52.422;10.782;2023-03-01T05:23:26;20.25;;;8.60;;
39846;SDS011;25517;52.422;10.782;2023-03-01T05:25:51;15.65;;;9.77;;
39846;SDS011;25517;52.422;10.782;2023-03-01T05:28:18;19.77;;;9.48;;
39846;SDS011;25517;52.422;10.782;2023-03-01T05:30:45;17.58;;;8.95;;
39846;SDS011;25517;52.422;10.782;2023-03-01T05:33:11;16.45;;;9.18;;
39846;SDS011;25517;52.422;10.782;2023-03-01T05:35:43;18.48;;;9.70;;
39846;SDS011;25517;52.422;10.782;2023-03-01T05:38:10;26.02;;;11.50;;
39846;SDS011;25517;52.422;10.782;2023-03-01T05:40:43;22.77;;;10.38;;
39846;SDS011;25517;52.422;10.782;2023-03-01T05:43:10;21.73;;;10.43;;
39846;SDS011;25517;52.422;10.782;2023-03-01T05:45:37;18.83;;;9.27;;
39846;SDS011;25517;52.422;10.782;2023-03-01T05:48:04;16.42;;;9.77;;
39846;SDS011;25517;52.422;10.782;2023-03-01T05:50:32;21.67;;;9.80;;
39846;SDS011;25517;52.422;10.782;2023-03-01T05:53:00;19.30;;;9.20;;
39846;SDS011;25517;52.422;10.782;2023-03-01T05:55:40;18.17;;;9.73;;
39846;SDS011;25517;52.422;10.782;2023-03-01T05:58:12;18.40;;;9.07;;
39846;SDS011;25517;52.422;10.782;2023-03-01T06:00:39;18.42;;;8.88;;
39846;SDS011;25517;52.422;10.782;2023-03-01T06:03:06;21.75;;;10.35;;
39846;SDS011;25517;52.422;10.782;2023-03-01T06:05:31;18.27;;;9.15;;
39846;SDS011;25517;52.422;10.782;2023-03-01T06:08:00;18.48;;;8.82;;
39846;SDS011;25517;52.422;10.782;2023-03-01T06:10:26;16.30;;;8.75;;
39846;SDS011;25517;52.422;10.782;2023-03-01T06:12:52;18.77;;;9.93;;
39846;SDS011;25517;52.422;10.782;2023-03-01T06:15:18;17.52;;;10.18;;
39846;SDS011;25517;52.422;10.782;2023-03-01T06:17:45;14.88;;;8.55;;
39846;SDS011;25517;52.422;10.782;2023-03-01T06:20:15;19.27;;;9.52;;
39846;SDS011;25517;52.422;10.782;2023-03-01T06:22:43;16.67;;;9.52;;
39846;SDS011;25517;52.422;10.782;2023-03-01T06:25:09;26.88;;;10.63;;
39846;SDS011;25517;52.422;10.782;2023-03-01T06:27:37;20.92;;;9.80;;
39846;SDS011;25517;52.422;10.782;2023-03-01T06:30:03;17.40;;;9.30;;
39846;SDS011;25517;52.422;10.782;2023-03-01T06:32:29;17.38;;;9.10;;
39846;SDS011;25517;52.422;10.782;2023-03-01T06:34:55;20.42;;;9.52;;
39846;SDS011;25517;52.422;10.782;2023-03-01T06:37:21;19.50;;;10.52;;
39846;SDS011;25517;52.422;10.782;2023-03-01T06:39:47;20.75;;;9.50;;
39846;SDS011;25517;52.422;10.782;2023-03-01T06:42:12;19.85;;;10.85;;
39846;SDS011;25517;52.422;10.782;2023-03-01T06:44:38;21.83;;;10.32;;
39846;SDS011;25517;52.422;10.782;2023-03-01T06:47:03;19.10;;;9.90;;
39846;SDS011;25517;52.422;10.782;2023-03-01T06:49:29;21.85;;;10.52;;
39846;SDS011;25517;52.422;10.782;2023-03-01T06:51:55;18.25;;;10.55;;
39846;SDS011;25517;52.422;10.782;2023-03-01T06:54:21;21.25;;;10.60;;
39846;SDS011;25517;52.422;10.782;2023-03-01T06:56:47;23.48;;;12.00;;
39846;SDS011;25517;52.422;10.782;2023-03-01T06:59:13;22.98;;;11.80;;
39846;SDS011;25517;52.422;10.782;2023-03-01T07:01:40;21.27;;;11.85;;
39846;SDS011;25517;52.422;10.782;2023-03-01T07:04:05;21.10;;;11.20;;
39846;SDS011;25517;52.422;10.782;2023-03-01T07:06:31;24.02;;;11.57;;
39846;SDS011;25517;52.422;10.782;2023-03-01T07:08:56;22.70;;;11.18;;
39846;SDS011;25517;52.422;10.782;2023-03-01T07:11:22;20.58;;;11.30;;
39846;SDS011;25517;52.422;10.782;2023-03-01T07:13:48;25.45;;;11.98;;
39846;SDS011;25517;52.422;10.782;2023-03-01T07:16:13;20.02;;;12.32;;
39846;SDS011;25517;52.422;10.782;2023-03-01T07:18:39;30.23;;;13.32;;
39846;SDS011;25517;52.422;10.782;2023-03-01T07:21:06;22.70;;;11.90;;
39846;SDS011;25517;52.422;10.782;2023-03-01T07:23:32;27.13;;;12.55;;
39846;SDS011;25517;52.422;10.782;2023-03-01T07:25:58;23.88;;;11.88;;
39846;SDS011;25517;52.422;10.782;2023-03-01T07:28:23;19.67;;;11.25;;
39846;SDS011;25517;52.422;10.782;2023-03-01T07:30:49;17.23;;;10.38;;
39846;SDS011;25517;52.422;10.782;2023-03-01T07:33:15;24.17;;;11.35;;
39846;SDS011;25517;52.422;10.782;2023-03-01T07:35:41;21.52;;;11.52;;
39846;SDS011;25517;52.422;10.782;2023-03-01T07:38:07;21.58;;;10.43;;
39846;SDS011;25517;52.422;10.782;2023-03-01T07:40:32;21.92;;;11.18;;
39846;SDS011;25517;52.422;10.782;2023-03-01T07:42:58;19.80;;;10.10;;
39846;SDS011;25517;52.422;10.782;2023-03-01T07:45:24;20.80;;;10.10;;
39846;SDS011;25517;52.422;10.782;2023-03-01T07:47:54;17.58;;;9.93;;
39846;SDS011;25517;52.422;10.782;2023-03-01T07:50:20;19.77;;;9.90;;
39846;SDS011;25517;52.422;10.782;2023-03-01T07:52:47;16.08;;;9.30;;
39846;SDS011;25517;52.422;10.782;2023-03-01T07:55:14;18.90;;;9.90;;
39846;SDS011;25517;52.422;10.782;2023-03-01T07:57:40;19.45;;;9.80;;
39846;SDS011;25517;52.422;10.782;2023-03-01T08:00:07;19.38;;;8.50;;
39846;SDS011;25517;52.422;10.782;2023-03-01T08:02:34;20.95;;;9.68;;
39846;SDS011;25517;52.422;10.782;2023-03-01T08:05:00;13.70;;;8.23;;
39846;SDS011;25517;52.422;10.782;2023-03-01T08:07:25;18.25;;;9.15;;
39846;SDS011;25517;52.422;10.782;2023-03-01T08:09:51;15.68;;;8.88;;
39846;SDS011;25517;52.422;10.782;2023-03-01T08:12:16;15.85;;;9.40;;
39846;SDS011;25517;52.422;10.782;2023-03-01T08:14:42;15.55;;;8.75;;
39846;SDS011;25517;52.422;10.782;2023-03-01T08:17:08;14.82;;;8.85;;
39846;SDS011;25517;52.422;10.782;2023-03-01T08:19:34;15.35;;;9.13;;
39846;SDS011;25517;52.422;10.782;2023-03-01T08:21:59;17.20;;;8.82;;
39846;SDS011;25517;52.422;10.782;2023-03-01T08:24:26;16.55;;;9.15;;
39846;SDS011;25517;52.422;10.782;2023-03-01T08:26:52;15.65;;;8.73;;
39846;SDS011;25517;52.422;10.782;2023-03-01T08:29:18;14.82;;;8.43;;
39846;SDS011;25517;52.422;10.782;2023-03-01T08:31:43;15.32;;;8.70;;
39846;SDS011;25517;52.422;10.782;2023-03-01T08:34:11;14.55;;;8.32;;
39846;SDS011;25517;52.422;10.782;2023-03-01T08:36:38;12.70;;;7.85;;
39846;SDS011;25517;52.422;10.782;2023-03-01T08:39:05;13.00;;;8.02;;
39846;SDS011;25517;52.422;10.782;2023-03-01T08:41:33;17.65;;;9.00;;
39846;SDS011;25517;52.422;10.782;2023-03-01T08:43:58;14.57;;;9.07;;
39846;SDS011;25517;52.422;10.782;2023-03-01T08:46:25;15.00;;;8.32;;
39846;SDS011;25517;52.422;10.782;2023-03-01T08:48:51;15.07;;;7.97;;
39846;SDS011;25517;52.422;10.782;2023-03-01T08:51:17;13.63;;;7.50;;
39846;SDS011;25517;52.422;10.782;2023-03-01T08:53:44;14.65;;;7.53;;
39846;SDS011;25517;52.422;10.782;2023-03-01T08:56:10;12.82;;;7.30;;
39846;SDS011;25517;52.422;10.782;2023-03-01T08:58:36;13.98;;;6.93;;
39846;SDS011;25517;52.422;10.782;2023-03-01T09:01:09;13.00;;;7.07;;
39846;SDS011;25517;52.422;10.782;2023-03-01T09:03:35;13.93;;;7.88;;
39846;SDS011;25517;52.422;10.782;2023-03-01T09:06:01;17.00;;;8.27;;
39846;SDS011;25517;52.422;10.782;2023-03-01T09:08:28;13.48;;;7.30;;
39846;SDS011;25517;52.422;10.782;2023-03-01T09:10:53;11.52;;;6.47;;
39846;SDS011;25517;52.422;10.782;2023-03-01T09:13:19;11.98;;;6.15;;
39846;SDS011;25517;52.422;10.782;2023-03-01T09:15:44;11.63;;;6.28;;
39846;SDS011;25517;52.422;10.782;2023-03-01T09:18:10;12.88;;;6.07;;
39846;SDS011;25517;52.422;10.782;2023-03-01T09:20:35;6.68;;;4.90;;
39846;SDS011;25517;52.422;10.782;2023-03-01T09:23:01;7.05;;;4.72;;
39846;SDS011;25517;52.422;10.782;2023-03-01T09:25:28;7.45;;;4.85;;
39846;SDS011;25517;52.422;10.782;2023-03-01T09:27:53;6.63;;;4.70;;
39846;SDS011;25517;52.422;10.782;2023-03-01T09:30:20;9.38;;;5.55;;
39846;SDS011;25517;52.422;10.782;2023-03-01T09:32:46;8.27;;;4.00;;
39846;SDS011;25517;52.422;10.782;2023-03-01T09:35:12;7.03;;;4.68;;
39846;SDS011;25517;52.422;10.782;2023-03-01T09:37:37;5.80;;;3.83;;
39846;SDS011;25517;52.422;10.782;2023-03-01T09:40:05;7.72;;;3.92;;
39846;SDS011;25517;52.422;10.782;2023-03-01T09:42:32;7.50;;;4.40;;
39846;SDS011;25517;52.422;10.782;2023-03-01T09:47:36;7.70;;;4.97;;
39846;SDS011;25517;52.422;10.782;2023-03-01T09:52:39;6.50;;;4.32;;
39846;SDS011;25517;52.422;10.782;2023-03-01T09:55:09;7.47;;;4.57;;
39846;SDS011;25517;52.422;10.782;2023-03-01T09:57:40;4.78;;;3.70;;
39846;SDS011;25517;52.422;10.782;2023-03-01T10:00:28;4.70;;;3.90;;
39846;SDS011;25517;52.422;10.782;2023-03-01T10:05:41;7.73;;;3.93;;
39846;SDS011;25517;52.422;10.782;2023-03-01T10:11:22;7.78;;;4.10;;
39846;SDS011;25517;52.422;10.782;2023-03-01T10:13:56;6.25;;;3.80;;
39846;SDS011;25517;52.422;10.782;2023-03-01T10:16:34;4.43;;;3.15;;
39846;SDS011;25517;52.422;10.782;2023-03-01T10:19:23;6.03;;;3.50;;
39846;SDS011;25517;52.422;10.782;2023-03-01T10:22:04;6.13;;;4.43;;
39846;SDS011;25517;52.422;10.782;2023-03-01T10:24:38;6.28;;;3.95;;
39846;SDS011;25517;52.422;10.782;2023-03-01T10:27:05;4.07;;;3.53;;
39846;SDS011;25517;52.422;10.782;2023-03-01T10:29:42;5.00;;;3.92;;
39846;SDS011;25517;52.422;10.782;2023-03-01T10:32:15;5.40;;;3.75;;
39846;SDS011;25517;52.422;10.782;2023-03-01T10:34:42;5.47;;;3.70;;
39846;SDS011;25517;52.422;10.782;2023-03-01T10:37:09;6.07;;;4.75;;
39846;SDS011;25517;52.422;10.782;2023-03-01T10:39:35;6.60;;;4.65;;
39846;SDS011;25517;52.422;10.782;2023-03-01T10:42:03;5.80;;;4.20;;
39846;SDS011;25517;52.422;10.782;2023-03-01T10:45:14;6.32;;;4.07;;
39846;SDS011;25517;52.422;10.782;2023-03-01T10:47:24;4.20;;;3.60;;
39846;SDS011;25517;52.422;10.782;2023-03-01T10:49:55;6.63;;;4.05;;
39846;SDS011;25517;52.422;10.782;2023-03-01T10:52:35;5.03;;;3.75;;
39846;SDS011;25517;52.422;10.782;2023-03-01T10:55:24;5.00;;;4.07;;
39846;SDS011;25517;52.422;10.782;2023-03-01T10:58:16;4.70;;;3.67;;
39846;SDS011;25517;52.422;10.782;2023-03-01T11:03:21;5.80;;;3.50;;
39846;SDS011;25517;52.422;10.782;2023-03-01T11:06:04;6.47;;;3.65;;
39846;SDS011;25517;52.422;10.782;2023-03-01T11:08:46;6.25;;;4.03;;
39846;SDS011;25517;52.422;10.782;2023-03-01T11:11:23;3.58;;;3.10;;
39846;SDS011;25517;52.422;10.782;2023-03-01T11:16:40;5.40;;;3.10;;
39846;SDS011;25517;52.422;10.782;2023-03-01T11:21:34;5.68;;;3.75;;
39846;SDS011;25517;52.422;10.782;2023-03-01T11:24:21;6.32;;;3.33;;
39846;SDS011;25517;52.422;10.782;2023-03-01T11:26:54;5.45;;;3.65;;
39846;SDS011;25517;52.422;10.782;2023-03-01T11:29:34;5.57;;;3.35;;
39846;SDS011;25517;52.422;10.782;2023-03-01T11:32:05;4.78;;;3.50;;
39846;SDS011;25517;52.422;10.782;2023-03-01T11:37:21;5.25;;;3.70;;
39846;SDS011;25517;52.422;10.782;2023-03-01T11:42:46;6.68;;;3.97;;
39846;SDS011;25517;52.422;10.782;2023-03-01T11:45:16;5.50;;;3.47;;
39846;SDS011;25517;52.422;10.782;2023-03-01T11:50:16;4.72;;;3.97;;
39846;SDS011;25517;52.422;10.782;2023-03-01T11:55:29;5.90;;;4.13;;
39846;SDS011;25517;52.422;10.782;2023-03-01T11:58:19;4.45;;;3.35;;
39846;SDS011;25517;52.422;10.782;2023-03-01T12:08:43;4.70;;;3.05;;
39846;SDS011;25517;52.422;10.782;2023-03-01T12:11:58;4.93;;;3.80;;
39846;SDS011;25517;52.422;10.782;2023-03-01T12:23:11;4.97;;;3.60;;
39846;SDS011;25517;52.422;10.782;2023-03-01T12:34:28;4.82;;;3.47;;
39846;SDS011;25517;52.422;10.782;2023-03-01T12:45:40;4.68;;;3.72;;
39846;SDS011;25517;52.422;10.782;2023-03-01T12:51:03;5.68;;;4.25;;
39846;SDS011;25517;52.422;10.782;2023-03-01T12:53:36;6.78;;;4.00;;
39846;SDS011;25517;52.422;10.782;2023-03-01T12:56:06;5.20;;;3.60;;
39846;SDS011;25517;52.422;10.782;2023-03-01T13:01:48;7.55;;;4.00;;
39846;SDS011;25517;52.422;10.782;2023-03-01T13:07:47;4.88;;;3.60;;
39846;SDS011;25517;52.422;10.782;2023-03-01T13:10:34;6.35;;;3.53;;
39846;SDS011;25517;52.422;10.782;2023-03-01T13:15:43;6.88;;;4.28;;
39846;SDS011;25517;52.422;10.782;2023-03-01T13:26:00;6.13;;;3.67;;
39846;SDS011;25517;52.422;10.782;2023-03-01T13:31:54;6.30;;;3.85;;
39846;SDS011;25517;52.422;10.782;2023-03-01T13:38:57;6.80;;;3.85;;
39846;SDS011;25517;52.422;10.782;2023-03-01T13:44:21;6.93;;;3.90;;
39846;SDS011;25517;52.422;10.782;2023-03-01T13:46:52;6.03;;;3.60;;
39846;SDS011;25517;52.422;10.782;2023-03-01T13:49:23;5.72;;;4.45;;
39846;SDS011;25517;52.422;10.782;2023-03-01T13:51:51;5.15;;;3.50;;
39846;SDS011;25517;52.422;10.782;2023-03-01T13:54:28;7.15;;;4.28;;
39846;SDS011;25517;52.422;10.782;2023-03-01T13:56:55;7.60;;;3.65;;
39846;SDS011;25517;52.422;10.782;2023-03-01T13:59:23;5.10;;;3.58;;
39846;SDS011;25517;52.422;10.782;2023-03-01T14:02:00;6.95;;;3.72;;
39846;SDS011;25517;52.422;10.782;2023-03-01T14:04:30;7.82;;;4.15;;
39846;SDS011;25517;52.422;10.782;2023-03-01T14:09:39;7.55;;;3.53;;
39846;SDS011;25517;52.422;10.782;2023-03-01T14:15:38;6.97;;;3.38;;
39846;SDS011;25517;52.422;10.782;2023-03-01T14:18:13;6.32;;;3.60;;
39846;SDS011;25517;52.422;10.782;2023-03-01T14:20:43;7.00;;;3.40;;
39846;SDS011;25517;52.422;10.782;2023-03-01T14:23:17;5.30;;;2.80;;
39846;SDS011;25517;52.422;10.782;2023-03-01T14:25:46;4.80;;;2.87;;
39846;SDS011;25517;52.422;10.782;2023-03-01T14:30:52;5.68;;;2.95;;
39846;SDS011;25517;52.422;10.782;2023-03-01T14:33:26;3.97;;;2.72;;
39846;SDS011;25517;52.422;10.782;2023-03-01T14:40:58;4.45;;;2.83;;
39846;SDS011;25517;52.422;10.782;2023-03-01T14:43:26;6.55;;;2.85;;
39846;SDS011;25517;52.422;10.782;2023-03-01T14:45:53;5.15;;;2.72;;
39846;SDS011;25517;52.422;10.782;2023-03-01T14:48:20;6.00;;;2.88;;
39846;SDS011;25517;52.422;10.782;2023-03-01T14:50:46;5.07;;;3.40;;
39846;SDS011;25517;52.422;10.782;2023-03-01T14:53:21;5.13;;;3.35;;
39846;SDS011;25517;52.422;10.782;2023-03-01T14:55:53;5.55;;;3.40;;
39846;SDS011;25517;52.422;10.782;2023-03-01T14:58:22;6.65;;;2.90;;
39846;SDS011;25517;52.422;10.782;2023-03-01T15:00:59;4.80;;;3.53;;
39846;SDS011;25517;52.422;10.782;2023-03-01T15:03:33;5.30;;;3.08;;
39846;SDS011;25517;52.422;10.782;2023-03-01T15:06:08;7.28;;;3.20;;
39846;SDS011;25517;52.422;10.782;2023-03-01T15:08:35;5.53;;;3.40;;
39846;SDS011;25517;52.422;10.782;2023-03-01T15:13:41;6.93;;;3.80;;
39846;SDS011;25517;52.422;10.782;2023-03-01T15:16:11;7.50;;;3.85;;
39846;SDS011;25517;52.422;10.782;2023-03-01T15:18:43;4.95;;;3.08;;
39846;SDS011;25517;52.422;10.782;2023-03-01T15:21:15;4.80;;;3.25;;
39846;SDS011;25517;52.422;10.782;2023-03-01T15:23:50;6.97;;;3.40;;
39846;SDS011;25517;52.422;10.782;2023-03-01T15:26:24;5.10;;;3.03;;
39846;SDS011;25517;52.422;10.782;2023-03-01T15:29:15;5.18;;;3.30;;
39846;SDS011;25517;52.422;10.782;2023-03-01T15:31:50;4.20;;;2.95;;
39846;SDS011;25517;52.422;10.782;2023-03-01T15:34:23;4.15;;;3.03;;
39846;SDS011;25517;52.422;10.782;2023-03-01T15:36:54;6.45;;;3.15;;
39846;SDS011;25517;52.422;10.782;2023-03-01T15:39:32;8.18;;;3.03;;
39846;SDS011;25517;52.422;10.782;2023-03-01T15:42:02;6.05;;;3.47;;
39846;SDS011;25517;52.422;10.782;2023-03-01T15:44:34;6.15;;;3.38;;
39846;SDS011;25517;52.422;10.782;2023-03-01T15:47:01;6.22;;;3.13;;
39846;SDS011;25517;52.422;10.782;2023-03-01T15:49:55;5.03;;;2.63;;
39846;SDS011;25517;52.422;10.782;2023-03-01T15:52:27;5.05;;;2.83;;
39846;SDS011;25517;52.422;10.782;2023-03-01T15:54:57;5.07;;;2.97;;
39846;SDS011;25517;52.422;10.782;2023-03-01T15:57:27;8.70;;;2.70;;
39846;SDS011;25517;52.422;10.782;2023-03-01T15:59:52;5.57;;;3.00;;
39846;SDS011;25517;52.422;10.782;2023-03-01T16:02:18;5.43;;;3.38;;
39846;SDS011;25517;52.422;10.782;2023-03-01T16:04:45;7.97;;;3.47;;
39846;SDS011;25517;52.422;10.782;2023-03-01T16:07:11;6.25;;;3.17;;
39846;SDS011;25517;52.422;10.782;2023-03-01T16:09:37;5.25;;;3.20;;
39846;SDS011;25517;52.422;10.782;2023-03-01T16:12:03;4.80;;;2.83;;
39846;SDS011;25517;52.422;10.782;2023-03-01T16:14:28;6.68;;;3.90;;
39846;SDS011;25517;52.422;10.782;2023-03-01T16:16:54;6.78;;;3.60;;
39846;SDS011;25517;52.422;10.782;2023-03-01T16:19:20;6.82;;;3.35;;
39846;SDS011;25517;52.422;10.782;2023-03-01T16:21:46;7.05;;;4.20;;
39846;SDS011;25517;52.422;10.782;2023-03-01T16:24:13;7.10;;;4.10;;
39846;SDS011;25517;52.422;10.782;2023-03-01T16:26:39;7.47;;;4.13;;
39846;SDS011;25517;52.422;10.782;2023-03-01T16:29:05;9.23;;;4.15;;
39846;SDS011;25517;52.422;10.782;2023-03-01T16:31:30;9.30;;;4.75;;
39846;SDS011;25517;52.422;10.782;2023-03-01T16:33:57;8.73;;;4.40;;
39846;SDS011;25517;52.422;10.782;2023-03-01T16:36:23;8.02;;;5.05;;
39846;SDS011;25517;52.422;10.782;2023-03-01T16:38:50;10.30;;;5.18;;
39846;SDS011;25517;52.422;10.782;2023-03-01T16:41:17;7.75;;;4.13;;
39846;SDS011;25517;52.422;10.782;2023-03-01T16:43:44;7.60;;;4.00;;
39846;SDS011;25517;52.422;10.782;2023-03-01T16:46:13;9.55;;;4.15;;
39846;SDS011;25517;52.422;10.782;2023-03-01T16:48:41;8.07;;;3.90;;
39846;SDS011;25517;52.422;10.782;2023-03-01T16:51:07;5.20;;;3.38;;